Ausable Chasm, NY

5:06 AM EDT on September 20, 2014 (GMT -0400)
Adirondack Regional | Change Station
CLOSE
Current Station
Airport
Location: Saranac Lake,
Elevation: 1660 ft
Nearby Weather Stations

Elev 1660 ft 44.39 °N, 74.21 °W | Updated 15 minutes ago

Partly Cloudy
Partly Cloudy
49 °F
Feels Like 49 °F
N
9
Wind Variable Wind from SW

Today
High -- | Low -- °F
--% Chance of Precip.
Yesterday
High -- | Low -- °F
Precip. -- in
6:38 AM 6:55 PM
Waning Crescent, 13% visible
Pressure 30.16 in
Visibility 10.0 miles
Clouds Mostly Cloudy 2200 ft
Overcast 5000 ft
Dew Point 44 °F
Humidity 83%
Rainfall 0.00 in
Snow Depth Not available.
UV 0 out of 12
Pollen 2.20 out of 12
Air Quality Not available.
Flu Activity Not available.
METAR KSLK 200851Z AUTO 22008KT 10SM BKN022 OVC050 09/07 A3014 RMK AO2 SLP211 T00940067 56013

More Conditions Fewer Conditions

Pressure 30.16 in
Visibility 10.0 miles
Clouds Mostly Cloudy 2200 ft
Overcast 5000 ft
Dew Point 44 °F
Humidity 83%
Rainfall 0.00 in
Snow Depth Not available.
UV 0 out of 12
Pollen 2.20 out of 12
Air Quality Not available.
Flu Activity Not available.
METAR KSLK 200851Z AUTO 22008KT 10SM BKN022 OVC050 09/07 A3014 RMK AO2 SLP211 T00940067 56013

More Conditions Fewer Conditions

10-Day Weather Forecast

Almanac

Astronomy

Sep. 20, 2014 Rise Set
Actual Time 6:38 AM EDT 6:55 PM EDT
Civil Twilight 6:09 AM EDT 7:24 PM EDT
Nautical Twilight 5:35 AM EDT 7:58 PM EDT
Astronomical Twilight 5:00 AM EDT 8:33 PM EDT
Moon 3:08 AM EDT 5:02 PM EDT
Length of Visible Light 13h 14m
Length of Day
12h 16m
Tomorrow will be 3m 4s shorter.
Waning Crescent, 13% of the Moon is Illuminated
Today
Waning Crescent
Sep 24
New
Oct 1
First Quarter
Oct 8
Full
Oct 15
Last Quarter

Today's Extremes

State Highs State Lows

Community

WunderPhotos

Upload Photos

1,754,793 photos uploaded!

WunderBlogs® & News

Nearby

Air Quality

  Air Quality AQ Index Pollutant
Saturday Good
OZONE
Saturday Good
PM2.5
Sunday Good
OZONE
Sunday Good
PM2.5
Monday Good
OZONE
Monday Good
PM2.5

Snow Depth

Station Depth Elevation
No new snow has been reported.

Earthquake Activity

City Distance Mag. Time & Date
No recent earthquake activity has been reported nearby.
Minimum magnitude displayed is 2.5.

Coastal Water Temperatures

Place Temperature
No Stations Reporting

Nearby Weather Stations